createdAt,value
2023-04-09T00:01:41.686Z,12.30
2023-04-09T00:04:08.652Z,13.18
2023-04-09T00:06:35.513Z,12.65
2023-04-09T00:09:02.490Z,11.40
2023-04-09T00:11:29.301Z,12.05
2023-04-09T00:13:57.480Z,12.30
2023-04-09T00:16:24.503Z,11.85
2023-04-09T00:18:51.876Z,12.00
2023-04-09T00:21:20.552Z,13.38
2023-04-09T00:23:47.464Z,12.48
2023-04-09T00:26:14.660Z,13.45
2023-04-09T00:28:41.615Z,11.52
2023-04-09T00:31:08.453Z,12.38
2023-04-09T00:33:35.240Z,11.43
2023-04-09T00:36:02.156Z,11.93
2023-04-09T00:38:29.017Z,11.45
2023-04-09T00:40:56.327Z,12.60
2023-04-09T00:43:23.204Z,11.48
2023-04-09T00:45:50.120Z,12.35
2023-04-09T00:48:17.685Z,11.32
2023-04-09T00:50:44.515Z,11.32
2023-04-09T00:53:12.710Z,10.40
2023-04-09T00:55:42.675Z,12.35
2023-04-09T00:58:09.547Z,12.20
2023-04-09T01:00:36.582Z,10.80
2023-04-09T01:03:05.359Z,12.02
2023-04-09T01:05:57.905Z,11.75
2023-04-09T01:08:46.425Z,11.70
2023-04-09T01:11:54.635Z,10.30
2023-04-09T01:14:27.320Z,11.60
2023-04-09T01:17:02.243Z,10.00
2023-04-09T01:19:48.737Z,11.90
2023-04-09T01:22:56.556Z,11.10
2023-04-09T01:25:45.532Z,11.93
2023-04-09T01:28:27.266Z,12.45
2023-04-09T01:31:00.840Z,13.57
2023-04-09T01:33:29.576Z,12.65
2023-04-09T01:35:57.306Z,11.30
2023-04-09T01:38:25.687Z,12.95
2023-04-09T01:40:53.818Z,11.95
2023-04-09T01:43:21.492Z,12.15
2023-04-09T01:45:49.685Z,12.50
2023-04-09T01:48:17.262Z,10.48
2023-04-09T01:50:44.512Z,12.35
2023-04-09T01:53:11.417Z,12.73
2023-04-09T01:55:38.368Z,13.48
2023-04-09T01:58:05.370Z,14.27
2023-04-09T02:00:37.682Z,12.35
2023-04-09T02:03:07.264Z,12.30
2023-04-09T02:05:41.580Z,11.98
2023-04-09T02:08:12.474Z,12.75
2023-04-09T02:10:40.839Z,13.48
2023-04-09T02:13:13.464Z,11.50
2023-04-09T02:15:41.573Z,13.30
2023-04-09T02:18:25.217Z,12.65
2023-04-09T02:20:52.837Z,14.45
2023-04-09T02:23:19.768Z,13.88
2023-04-09T02:25:46.755Z,13.60
2023-04-09T02:28:13.656Z,13.18
2023-04-09T02:30:40.924Z,13.00
2023-04-09T02:33:07.726Z,14.13
2023-04-09T02:35:34.715Z,14.23
2023-04-09T02:38:01.776Z,13.00
2023-04-09T02:40:28.730Z,12.18
2023-04-09T02:42:55.640Z,14.48
2023-04-09T02:45:22.473Z,14.00
2023-04-09T02:47:49.595Z,14.48
2023-04-09T02:50:16.851Z,13.88
2023-04-09T02:52:47.440Z,14.30
2023-04-09T02:55:14.898Z,14.20
2023-04-09T02:57:41.934Z,12.77
2023-04-09T03:00:09.532Z,15.07
2023-04-09T03:02:36.588Z,13.77
2023-04-09T03:05:03.920Z,13.23
2023-04-09T03:07:30.915Z,14.00
2023-04-09T03:09:57.838Z,13.85
2023-04-09T03:12:24.723Z,14.32
2023-04-09T03:14:51.569Z,14.15
2023-04-09T03:17:18.376Z,13.18
2023-04-09T03:19:45.155Z,13.55
2023-04-09T03:22:12.028Z,14.38
2023-04-09T03:24:38.854Z,12.82
2023-04-09T03:27:05.809Z,12.93
2023-04-09T03:29:32.598Z,11.90
2023-04-09T03:31:59.435Z,14.18
2023-04-09T03:34:26.229Z,12.30
2023-04-09T03:36:53.171Z,12.90
2023-04-09T03:39:19.991Z,12.40
2023-04-09T03:41:46.865Z,13.02
2023-04-09T03:44:13.705Z,12.55
2023-04-09T03:46:40.699Z,12.57
2023-04-09T03:49:07.951Z,12.30
2023-04-09T03:51:34.767Z,13.98
2023-04-09T03:54:01.540Z,13.63
2023-04-09T03:56:28.322Z,13.70
2023-04-09T03:58:55.482Z,14.02
2023-04-09T04:01:22.324Z,13.98
2023-04-09T04:03:49.357Z,15.68
2023-04-09T04:06:16.514Z,14.73
2023-04-09T04:08:44.695Z,13.23
2023-04-09T04:11:11.525Z,13.10
2023-04-09T04:13:38.330Z,12.82
2023-04-09T04:16:11.418Z,14.65
2023-04-09T04:18:38.253Z,13.07
2023-04-09T04:21:05.144Z,12.07
2023-04-09T04:23:32.037Z,13.90
2023-04-09T04:25:58.952Z,12.40
2023-04-09T04:28:25.794Z,13.20
2023-04-09T04:30:52.602Z,13.20
2023-04-09T04:33:19.370Z,12.63
2023-04-09T04:35:46.366Z,12.07
2023-04-09T04:38:13.475Z,12.25
2023-04-09T04:40:40.291Z,12.27
2023-04-09T04:43:07.110Z,12.18
2023-04-09T04:45:33.990Z,12.77
2023-04-09T04:48:00.887Z,11.75
2023-04-09T04:50:27.861Z,13.23
2023-04-09T04:52:54.749Z,12.13
2023-04-09T04:55:21.594Z,12.32
2023-04-09T04:57:52.322Z,12.75
2023-04-09T05:00:19.153Z,11.65
2023-04-09T05:02:46.140Z,13.65
2023-04-09T05:05:13.011Z,12.18
2023-04-09T05:07:46.008Z,11.68
2023-04-09T05:10:13.036Z,12.35
2023-04-09T05:12:39.961Z,11.82
2023-04-09T05:15:07.812Z,12.00
2023-04-09T05:17:34.737Z,12.48
2023-04-09T05:20:01.545Z,11.45
2023-04-09T05:22:28.374Z,12.18
2023-04-09T05:24:55.184Z,12.48
2023-04-09T05:27:24.345Z,12.88
2023-04-09T05:29:51.153Z,13.00
2023-04-09T05:32:18.047Z,12.30
2023-04-09T05:34:44.970Z,13.15
2023-04-09T05:37:11.895Z,12.05
2023-04-09T05:39:40.807Z,13.43
2023-04-09T05:42:07.640Z,14.10
2023-04-09T05:44:34.475Z,12.88
2023-04-09T05:47:01.276Z,13.88
2023-04-09T05:49:28.055Z,13.77
2023-04-09T05:51:54.909Z,14.40
2023-04-09T05:54:21.900Z,13.30
2023-04-09T05:56:48.916Z,14.57
2023-04-09T05:59:15.722Z,14.05
2023-04-09T06:01:42.732Z,14.93
2023-04-09T06:04:09.670Z,14.55
2023-04-09T06:06:39.975Z,14.00
2023-04-09T06:09:06.840Z,15.30
2023-04-09T06:11:34.535Z,14.85
2023-04-09T06:14:01.384Z,13.90
2023-04-09T06:16:28.227Z,15.70
2023-04-09T06:18:56.910Z,15.05
2023-04-09T06:21:23.777Z,14.77
2023-04-09T06:23:51.741Z,14.60
2023-04-09T06:26:18.921Z,14.63
2023-04-09T06:28:45.737Z,14.10
2023-04-09T06:31:12.885Z,15.90
2023-04-09T06:33:39.699Z,14.30
2023-04-09T06:36:07.122Z,13.90
2023-04-09T06:38:34.189Z,15.45
2023-04-09T06:41:01.146Z,14.30
2023-04-09T06:43:28.175Z,15.05
2023-04-09T06:45:54.965Z,13.90
2023-04-09T06:48:22.032Z,15.60
2023-04-09T06:50:49.036Z,14.82
2023-04-09T06:53:16.405Z,14.95
2023-04-09T06:55:43.293Z,14.10
2023-04-09T06:58:10.363Z,13.32
2023-04-09T07:00:37.257Z,15.32
2023-04-09T07:03:05.531Z,15.43
2023-04-09T07:05:33.247Z,15.38
2023-04-09T07:08:00.103Z,15.77
2023-04-09T07:10:26.985Z,15.15
2023-04-09T07:12:53.847Z,12.85
2023-04-09T07:15:20.695Z,15.20
2023-04-09T07:17:47.894Z,13.30
2023-04-09T07:20:14.762Z,14.27
2023-04-09T07:22:41.677Z,13.82
2023-04-09T07:25:11.341Z,13.60
2023-04-09T07:27:38.200Z,14.60
2023-04-09T07:30:05.649Z,14.18
2023-04-09T07:32:32.565Z,16.08
2023-04-09T07:35:00.043Z,14.27
2023-04-09T07:37:28.426Z,13.70
2023-04-09T07:39:55.493Z,13.48
2023-04-09T07:42:22.507Z,14.23
2023-04-09T07:44:49.669Z,14.55
2023-04-09T07:47:16.686Z,15.02
2023-04-09T07:49:43.512Z,16.15
2023-04-09T07:52:10.722Z,13.23
2023-04-09T07:54:37.610Z,14.27
2023-04-09T07:57:06.922Z,16.98
2023-04-09T07:59:35.037Z,14.27
2023-04-09T08:02:02.264Z,15.13
2023-04-09T08:04:29.606Z,14.00
2023-04-09T08:06:56.533Z,15.48
2023-04-09T08:09:23.556Z,15.05
2023-04-09T08:11:50.592Z,13.85
2023-04-09T08:14:18.459Z,15.18
2023-04-09T08:16:47.311Z,13.65
2023-04-09T08:19:16.420Z,15.20
2023-04-09T08:21:43.924Z,12.55
2023-04-09T08:24:11.931Z,12.35
2023-04-09T08:26:43.194Z,13.65
2023-04-09T08:29:12.319Z,13.73
2023-04-09T08:31:39.836Z,11.18
2023-04-09T08:34:07.256Z,13.77
2023-04-09T08:36:35.469Z,13.38
2023-04-09T08:39:03.057Z,12.60
2023-04-09T08:41:30.493Z,12.50
2023-04-09T08:43:59.182Z,11.25
2023-04-09T08:46:27.373Z,11.88
2023-04-09T08:48:54.739Z,10.82
2023-04-09T08:51:23.959Z,12.25
2023-04-09T08:53:59.527Z,11.93
2023-04-09T08:56:28.061Z,11.77
2023-04-09T08:58:56.189Z,11.07
2023-04-09T09:01:24.783Z,12.30
2023-04-09T09:04:06.173Z,12.52
2023-04-09T09:06:35.912Z,12.40
2023-04-09T09:09:04.091Z,11.98
2023-04-09T09:11:31.110Z,13.10
2023-04-09T09:14:09.037Z,13.45
2023-04-09T09:16:41.064Z,11.80
2023-04-09T09:19:08.457Z,13.00
2023-04-09T09:21:36.493Z,14.30
2023-04-09T09:24:17.152Z,11.88
2023-04-09T09:26:43.994Z,13.27
2023-04-09T09:29:11.047Z,13.35
2023-04-09T09:31:51.469Z,11.82
2023-04-09T09:34:19.716Z,13.35
2023-04-09T09:36:47.224Z,12.35
2023-04-09T09:39:17.330Z,12.20
2023-04-09T09:41:49.047Z,12.88
2023-04-09T09:44:33.052Z,13.98
2023-04-09T09:47:03.476Z,13.43
2023-04-09T09:49:30.344Z,12.20
2023-04-09T09:52:00.118Z,14.77
2023-04-09T09:54:33.411Z,12.40
2023-04-09T09:57:04.611Z,13.10
2023-04-09T09:59:37.251Z,13.57
2023-04-09T10:02:16.701Z,11.50
2023-04-09T10:04:44.211Z,12.98
2023-04-09T10:07:11.445Z,13.45
2023-04-09T10:09:39.811Z,13.82
2023-04-09T10:12:08.734Z,12.68
2023-04-09T10:14:36.441Z,12.45
2023-04-09T10:17:04.360Z,12.48
2023-04-09T10:19:41.015Z,11.20
2023-04-09T10:22:13.793Z,11.88
2023-04-09T10:24:41.241Z,11.35
2023-04-09T10:27:15.731Z,9.75
2023-04-09T10:29:45.771Z,9.68
2023-04-09T10:32:17.676Z,12.23
2023-04-09T10:34:45.040Z,12.13
2023-04-09T10:37:27.873Z,11.80
2023-04-09T10:39:54.897Z,10.23
2023-04-09T10:42:30.336Z,11.23
2023-04-09T10:45:08.324Z,9.85
2023-04-09T10:47:37.985Z,10.55
2023-04-09T10:50:21.159Z,11.23
2023-04-09T10:52:53.087Z,9.85
2023-04-09T10:55:39.840Z,11.13
2023-04-09T10:58:13.583Z,10.70
2023-04-09T11:00:45.756Z,9.27
2023-04-09T11:03:34.484Z,9.90
2023-04-09T11:06:09.369Z,12.30
2023-04-09T11:08:38.746Z,11.40
2023-04-09T11:11:05.999Z,10.38
2023-04-09T11:13:34.167Z,9.68
2023-04-09T11:16:03.395Z,9.50
2023-04-09T11:18:30.887Z,9.98
2023-04-09T11:21:04.473Z,9.93
2023-04-09T11:23:32.460Z,10.65
2023-04-09T11:25:59.786Z,9.48
2023-04-09T11:28:26.856Z,10.10
2023-04-09T11:30:54.705Z,9.73
2023-04-09T11:33:22.352Z,10.35
2023-04-09T11:35:49.364Z,11.40
2023-04-09T11:38:16.903Z,9.93
2023-04-09T11:40:49.810Z,9.68
2023-04-09T11:43:17.800Z,9.07
2023-04-09T11:45:48.168Z,9.00
2023-04-09T11:48:18.361Z,10.25
2023-04-09T11:50:45.938Z,8.82
2023-04-09T11:53:20.150Z,7.85
2023-04-09T11:55:49.766Z,6.63
2023-04-09T11:58:17.452Z,7.07
2023-04-09T12:00:46.551Z,5.78
2023-04-09T12:03:16.294Z,6.43
2023-04-09T12:05:50.475Z,7.07
2023-04-09T12:08:24.397Z,7.72
2023-04-09T12:10:54.661Z,7.00
2023-04-09T12:13:21.517Z,7.35
2023-04-09T12:15:49.919Z,8.75
2023-04-09T12:18:23.366Z,7.95
2023-04-09T12:20:53.413Z,8.07
2023-04-09T12:23:20.284Z,7.10
2023-04-09T12:25:48.051Z,6.35
2023-04-09T12:28:18.119Z,7.28
2023-04-09T12:30:45.503Z,8.00
2023-04-09T12:33:12.630Z,6.53
2023-04-09T12:35:39.596Z,7.65
2023-04-09T12:38:06.572Z,7.82
2023-04-09T12:40:33.721Z,7.57
2023-04-09T12:43:03.040Z,6.68
2023-04-09T12:45:30.833Z,7.53
2023-04-09T12:47:58.382Z,7.30
2023-04-09T12:50:25.418Z,8.15
2023-04-09T12:52:52.309Z,7.72
2023-04-09T12:55:19.234Z,6.97
2023-04-09T12:57:47.314Z,8.20
2023-04-09T13:00:14.919Z,6.90
2023-04-09T13:02:42.443Z,7.60
2023-04-09T13:05:09.617Z,7.15
2023-04-09T13:07:36.580Z,7.63
2023-04-09T13:10:03.970Z,7.20
2023-04-09T13:12:30.898Z,7.60
2023-04-09T13:14:59.257Z,8.18
2023-04-09T13:17:26.386Z,8.95
2023-04-09T13:19:53.616Z,8.38
2023-04-09T13:22:20.792Z,9.30
2023-04-09T13:24:47.653Z,7.93
2023-04-09T13:27:14.541Z,9.02
2023-04-09T13:29:41.465Z,7.18
2023-04-09T13:32:08.559Z,9.18
2023-04-09T13:34:35.762Z,8.95
2023-04-09T13:37:03.469Z,8.52
2023-04-09T13:39:30.750Z,8.25
2023-04-09T13:41:57.721Z,7.65
2023-04-09T13:44:29.774Z,7.40
2023-04-09T13:46:57.109Z,8.50
2023-04-09T13:49:24.052Z,9.02
2023-04-09T13:51:51.176Z,8.18
2023-04-09T13:54:18.128Z,7.80
2023-04-09T13:56:46.352Z,7.75
2023-04-09T13:59:13.199Z,6.88
2023-04-09T14:01:41.104Z,8.15
2023-04-09T14:04:08.306Z,8.00
2023-04-09T14:06:35.444Z,8.65
2023-04-09T14:09:02.472Z,6.97
2023-04-09T14:11:29.397Z,8.02
2023-04-09T14:13:56.280Z,7.40
2023-04-09T14:16:23.861Z,7.00
2023-04-09T14:18:51.099Z,6.85
2023-04-09T14:21:18.813Z,7.18
2023-04-09T14:23:45.926Z,7.35
2023-04-09T14:26:13.450Z,7.10
2023-04-09T14:28:40.335Z,6.57
2023-04-09T14:31:07.283Z,7.43
2023-04-09T14:33:34.267Z,7.28
2023-04-09T14:36:01.288Z,7.20
2023-04-09T14:38:28.211Z,7.18
2023-04-09T14:40:55.177Z,6.15
2023-04-09T14:43:22.205Z,6.72
2023-04-09T14:45:49.018Z,6.53
2023-04-09T14:48:16.126Z,7.05
2023-04-09T14:50:43.704Z,5.88
2023-04-09T14:53:10.701Z,7.10
2023-04-09T14:55:38.161Z,5.50
2023-04-09T14:58:07.230Z,6.00
2023-04-09T15:00:34.727Z,5.97
2023-04-09T15:03:02.078Z,5.75
2023-04-09T15:05:29.105Z,5.60
2023-04-09T15:07:56.174Z,6.30
2023-04-09T15:10:23.037Z,10.82
2023-04-09T15:12:49.943Z,8.45
2023-04-09T15:15:16.866Z,7.97
2023-04-09T15:17:43.747Z,5.68
2023-04-09T15:20:11.399Z,6.38
2023-04-09T15:22:38.205Z,5.85
2023-04-09T15:25:05.574Z,7.05
2023-04-09T15:27:32.789Z,8.73
2023-04-09T15:29:59.619Z,7.13
2023-04-09T15:32:26.628Z,6.28
2023-04-09T15:34:53.456Z,5.53
2023-04-09T15:37:20.518Z,6.93
2023-04-09T15:39:47.339Z,6.70
2023-04-09T15:42:20.184Z,4.88
2023-04-09T15:44:47.104Z,5.43
2023-04-09T15:47:14.068Z,5.75
2023-04-09T15:49:41.016Z,5.95
2023-04-09T15:52:07.899Z,5.82
2023-04-09T15:54:34.819Z,5.85
2023-04-09T15:57:02.097Z,6.18
2023-04-09T15:59:29.011Z,5.50
2023-04-09T16:01:56.075Z,4.82
2023-04-09T16:04:22.996Z,4.85
2023-04-09T16:06:49.876Z,4.90
2023-04-09T16:09:16.688Z,5.15
2023-04-09T16:11:43.510Z,5.57
2023-04-09T16:14:10.612Z,4.90
2023-04-09T16:16:37.933Z,5.20
2023-04-09T16:19:04.778Z,4.43
2023-04-09T16:21:32.267Z,6.45
2023-04-09T16:24:00.785Z,5.57
2023-04-09T16:26:27.615Z,5.00
2023-04-09T16:28:54.744Z,5.43
2023-04-09T16:31:22.339Z,5.15
2023-04-09T16:33:49.213Z,5.35
2023-04-09T16:36:21.917Z,5.30
2023-04-09T16:38:48.975Z,5.18
2023-04-09T16:41:16.118Z,5.32
2023-04-09T16:43:44.469Z,5.65
2023-04-09T16:46:11.285Z,5.70
2023-04-09T16:48:41.693Z,5.97
2023-04-09T16:51:08.685Z,5.22
2023-04-09T16:53:39.016Z,5.07
2023-04-09T16:56:09.717Z,5.35
2023-04-09T16:58:36.556Z,5.75
2023-04-09T17:01:03.676Z,6.25
2023-04-09T17:03:30.617Z,5.20
2023-04-09T17:05:57.602Z,5.18
2023-04-09T17:08:24.776Z,4.65
2023-04-09T17:10:52.223Z,5.35
2023-04-09T17:13:19.042Z,5.60
2023-04-09T17:15:45.942Z,4.75
2023-04-09T17:18:12.853Z,5.20
2023-04-09T17:20:39.750Z,5.68
2023-04-09T17:23:06.706Z,5.07
2023-04-09T17:25:33.631Z,5.32
2023-04-09T17:28:01.717Z,5.18
2023-04-09T17:30:28.641Z,5.20
2023-04-09T17:32:55.999Z,5.32
2023-04-09T17:35:22.897Z,5.75
2023-04-09T17:37:49.898Z,5.40
2023-04-09T17:40:18.715Z,4.88
2023-04-09T17:42:46.194Z,4.80
2023-04-09T17:45:13.184Z,6.55
2023-04-09T17:47:41.094Z,6.28
2023-04-09T17:50:08.733Z,6.68
2023-04-09T17:52:37.373Z,6.95
2023-04-09T17:55:08.396Z,7.30
2023-04-09T17:57:36.319Z,6.78
2023-04-09T18:00:04.309Z,6.13
2023-04-09T18:02:32.165Z,5.90
2023-04-09T18:05:04.537Z,6.30
2023-04-09T18:07:33.922Z,5.55
2023-04-09T18:10:01.866Z,5.85
2023-04-09T18:12:29.396Z,7.30
2023-04-09T18:14:56.282Z,8.68
2023-04-09T18:17:23.390Z,7.97
2023-04-09T18:19:50.539Z,7.72
2023-04-09T18:22:17.393Z,7.05
2023-04-09T18:24:44.310Z,6.78
2023-04-09T18:27:11.254Z,6.15
2023-04-09T18:29:38.106Z,6.53
2023-04-09T18:32:05.270Z,6.93
2023-04-09T18:34:32.191Z,7.22
2023-04-09T18:36:59.015Z,7.43
2023-04-09T18:39:25.911Z,7.25
2023-04-09T18:41:52.782Z,7.50
2023-04-09T18:44:19.631Z,7.20
2023-04-09T18:46:46.726Z,8.85
2023-04-09T18:49:13.760Z,9.23
2023-04-09T18:51:40.710Z,9.70
2023-04-09T18:54:07.585Z,8.85
2023-04-09T18:56:34.448Z,9.25
2023-04-09T18:59:01.348Z,10.38
2023-04-09T19:01:28.751Z,10.43
2023-04-09T19:03:55.735Z,10.15
2023-04-09T19:06:23.367Z,11.60
2023-04-09T19:08:52.982Z,11.15
2023-04-09T19:11:19.977Z,10.80
2023-04-09T19:13:46.765Z,11.15
2023-04-09T19:16:13.638Z,11.05
2023-04-09T19:18:40.577Z,11.75
2023-04-09T19:21:08.294Z,9.60
2023-04-09T19:23:35.298Z,9.68
2023-04-09T19:26:03.260Z,9.70
2023-04-09T19:28:30.207Z,9.68
2023-04-09T19:30:58.326Z,9.00
2023-04-09T19:33:27.048Z,9.82
2023-04-09T19:35:55.883Z,9.18
2023-04-09T19:38:23.000Z,8.98
2023-04-09T19:40:49.873Z,9.25
2023-04-09T19:43:16.802Z,9.88
2023-04-09T19:45:43.750Z,9.73
2023-04-09T19:48:11.127Z,9.02
2023-04-09T19:50:38.957Z,9.15
2023-04-09T19:53:06.211Z,9.55
2023-04-09T19:55:36.477Z,9.98
2023-04-09T19:58:03.512Z,8.98
2023-04-09T20:00:31.971Z,8.82
2023-04-09T20:02:59.106Z,9.32
2023-04-09T20:05:27.038Z,8.32
2023-04-09T20:07:53.927Z,8.40
2023-04-09T20:10:21.224Z,7.38
2023-04-09T20:12:51.940Z,7.80
2023-04-09T20:15:21.720Z,8.68
2023-04-09T20:17:49.651Z,8.00
2023-04-09T20:20:20.483Z,8.95
2023-04-09T20:22:55.554Z,8.73
2023-04-09T20:25:23.356Z,10.10
2023-04-09T20:27:52.416Z,9.73
2023-04-09T20:30:21.335Z,8.57
2023-04-09T20:32:49.094Z,9.70
2023-04-09T20:35:16.348Z,9.60
2023-04-09T20:37:43.519Z,10.88
2023-04-09T20:40:11.942Z,10.32
2023-04-09T20:42:40.850Z,11.38
2023-04-09T20:45:08.791Z,11.48
2023-04-09T20:47:36.378Z,10.35
2023-04-09T20:50:03.841Z,10.43
2023-04-09T20:52:33.270Z,9.52
2023-04-09T20:55:00.183Z,9.48
2023-04-09T20:57:29.842Z,9.00
2023-04-09T20:59:56.790Z,7.55
2023-04-09T21:02:23.839Z,8.55
2023-04-09T21:04:50.886Z,8.20
2023-04-09T21:07:17.811Z,9.80
2023-04-09T21:09:45.032Z,10.07
2023-04-09T21:12:11.852Z,9.23
2023-04-09T21:14:38.898Z,10.73
2023-04-09T21:17:05.919Z,10.63
2023-04-09T21:19:32.906Z,11.82
2023-04-09T21:21:59.812Z,10.95
2023-04-09T21:24:27.794Z,11.32
2023-04-09T21:26:55.159Z,11.10
2023-04-09T21:29:22.027Z,12.10
2023-04-09T21:31:50.772Z,10.98
2023-04-09T21:34:17.648Z,12.15
2023-04-09T21:36:45.404Z,13.25
2023-04-09T21:39:15.326Z,12.55
2023-04-09T21:41:42.169Z,13.80
2023-04-09T21:44:09.117Z,13.82
2023-04-09T21:46:40.878Z,12.40
2023-04-09T21:49:08.112Z,13.10
2023-04-09T21:51:35.589Z,12.65
2023-04-09T21:54:04.701Z,12.88
2023-04-09T21:56:33.018Z,12.60
2023-04-09T21:59:01.221Z,13.52
2023-04-09T22:01:30.608Z,12.43
2023-04-09T22:04:02.019Z,13.90
2023-04-09T22:06:29.461Z,14.38
2023-04-09T22:08:57.742Z,14.98
2023-04-09T22:11:29.802Z,14.00
2023-04-09T22:13:57.542Z,14.82
2023-04-09T22:16:25.148Z,14.52
2023-04-09T22:18:53.536Z,15.85
2023-04-09T22:21:20.787Z,15.85
2023-04-09T22:23:47.769Z,15.27
2023-04-09T22:26:14.585Z,14.50
2023-04-09T22:28:41.515Z,16.20
2023-04-09T22:31:08.471Z,14.77
2023-04-09T22:33:35.423Z,16.63
2023-04-09T22:36:02.468Z,14.77
2023-04-09T22:38:29.350Z,15.98
2023-04-09T22:40:56.304Z,16.05
2023-04-09T22:43:23.253Z,15.52
2023-04-09T22:45:54.679Z,16.20
2023-04-09T22:48:22.806Z,17.02
2023-04-09T22:50:50.474Z,14.27
2023-04-09T22:53:20.813Z,14.55
2023-04-09T22:55:52.547Z,16.90
2023-04-09T22:58:19.404Z,15.30
2023-04-09T23:00:47.354Z,16.73
2023-04-09T23:03:14.828Z,17.20
2023-04-09T23:05:42.073Z,14.95
2023-04-09T23:08:09.371Z,16.23
2023-04-09T23:10:36.279Z,16.45
2023-04-09T23:13:03.706Z,15.63
2023-04-09T23:15:30.783Z,17.50
2023-04-09T23:17:57.746Z,17.40
2023-04-09T23:20:24.769Z,17.50
2023-04-09T23:22:51.647Z,17.15
2023-04-09T23:25:18.597Z,18.08
2023-04-09T23:27:46.598Z,18.70
2023-04-09T23:30:17.040Z,17.73
2023-04-09T23:32:45.721Z,18.40
2023-04-09T23:35:12.746Z,16.90
2023-04-09T23:37:41.004Z,19.13
2023-04-09T23:40:08.678Z,18.67
2023-04-09T23:42:35.651Z,21.00
2023-04-09T23:45:04.333Z,21.63
2023-04-09T23:47:33.642Z,22.00
2023-04-09T23:50:08.119Z,22.95
2023-04-09T23:52:37.625Z,22.52
2023-04-09T23:55:06.568Z,23.60
2023-04-09T23:57:33.689Z,21.05
